Gilbert, Arizona
Current Conditions -  °F | °C
As of 8:47 PM on Thursday 27 Nov 2014 (Local Time) from KCHD Reporting Station
Clear Clear  
Wind Chill: 14°   Ceiling: Unl
Heat Index: 14°   Visibility: 15mi
Dew Point:   Wind: 0mph
Humidity: 41%   Direction: NA
Pressure: 30.08"   Gusts: NA
Location:  33.33°N, 111.78°W
Report Text: KCHD 280347Z 00000KT 15SM SKC 14/01 A3008 RMK LAST
Loading
Personal Weather Stations






























Interactive Weather Map New forecast layout! Learn more

10-Day Weather Forecast

Advertisements
Track Severe Weather on mobile